In Rescue
 
Open Full Screen Window  High Contrast Mode
Wind Gusting 22 knots
14
October 25, 2021 3:03 PM CDT
Weather Information
Wind Direction
  150 °
Wind Speed
  14 kt (16 mph)
Wind Gust
  22 kt (25 mph)
Altimeter
30.10 in
Visibility
10 SM
Temperature
11° C
52° F
Dewpoint
-02° C
28° F
Humidity
41%
1hr Rain Fall
00.00 in.
24hr Rain Fall
00.00 in.
Sky Condition
Clear
VFR

METAR KCKN 252003Z AUTO 15014G22KT 10SM CLR 11/M02 A3010 RMK AO2 PWINO

FAA Disclaimer: The data displayed is for advisory purposes only and is not to be used for flight planning or operations.